createdAt,value
2023-01-30T00:02:21.524Z,9.43
2023-01-30T00:07:21.161Z,9.45
2023-01-30T00:12:19.367Z,8.75
2023-01-30T00:17:17.532Z,9.80
2023-01-30T00:22:15.667Z,9.57
2023-01-30T00:27:15.236Z,10.57
2023-01-30T00:32:13.414Z,10.30
2023-01-30T00:37:11.918Z,8.70
2023-01-30T00:42:27.970Z,8.18
2023-01-30T00:47:27.508Z,9.23
2023-01-30T00:52:25.682Z,10.52
2023-01-30T00:57:23.828Z,11.32
2023-01-30T01:02:22.073Z,9.38
2023-01-30T01:07:22.139Z,7.88
2023-01-30T01:12:20.317Z,9.43
2023-01-30T01:17:18.497Z,10.85
2023-01-30T01:22:19.201Z,8.85
2023-01-30T01:27:19.544Z,10.43
2023-01-30T01:32:17.883Z,10.80
2023-01-30T01:37:16.137Z,11.48
2023-01-30T01:42:14.374Z,22.60
2023-01-30T01:47:13.922Z,13.90
2023-01-30T01:52:14.300Z,15.48
2023-01-30T01:57:14.165Z,15.30
2023-01-30T02:02:13.688Z,15.52
2023-01-30T02:07:13.236Z,14.50
2023-01-30T02:12:12.465Z,17.20
2023-01-30T02:17:10.712Z,22.92
2023-01-30T02:22:25.658Z,17.15
2023-01-30T02:27:30.095Z,15.20
2023-01-30T02:32:34.582Z,16.92
2023-01-30T02:37:43.745Z,16.70
2023-01-30T02:42:49.992Z,16.50
2023-01-30T02:47:53.225Z,15.13
2023-01-30T02:52:51.408Z,15.05
2023-01-30T02:57:49.550Z,14.15
2023-01-30T03:03:07.296Z,15.32
2023-01-30T03:08:11.071Z,14.23
2023-01-30T03:13:12.761Z,14.40
2023-01-30T03:18:12.803Z,14.10
2023-01-30T03:23:10.965Z,13.25
2023-01-30T03:28:09.570Z,15.18
2023-01-30T03:33:07.711Z,13.98
2023-01-30T03:38:09.289Z,15.30
2023-01-30T03:43:07.860Z,14.75
2023-01-30T03:48:07.840Z,16.40
2023-01-30T03:53:06.152Z,14.98
2023-01-30T03:58:05.696Z,15.95
2023-01-30T04:03:05.307Z,17.85
2023-01-30T04:08:03.828Z,17.30
2023-01-30T04:13:01.956Z,19.25
2023-01-30T04:18:03.368Z,23.67
2023-01-30T04:23:25.230Z,17.73
2023-01-30T04:28:24.331Z,21.98
2023-01-30T04:33:25.532Z,17.50
2023-01-30T04:38:24.594Z,17.63
2023-01-30T04:43:24.217Z,17.25
2023-01-30T04:48:42.992Z,15.98
2023-01-30T04:53:41.335Z,14.57
2023-01-30T04:58:40.093Z,16.38
2023-01-30T05:03:39.432Z,19.02
2023-01-30T05:08:38.976Z,14.95
2023-01-30T05:13:37.811Z,15.27
2023-01-30T05:18:36.029Z,15.30
2023-01-30T05:23:34.175Z,15.05
2023-01-30T05:28:33.993Z,14.20
2023-01-30T05:33:32.187Z,14.60
2023-01-30T05:38:30.533Z,12.48
2023-01-30T05:43:28.845Z,12.77
2023-01-30T05:48:28.842Z,15.13
2023-01-30T05:53:29.155Z,14.70
2023-01-30T05:58:27.709Z,13.45
2023-01-30T06:03:25.854Z,14.77
2023-01-30T06:08:25.506Z,15.77
2023-01-30T06:13:25.086Z,27.50
2023-01-30T06:18:23.225Z,37.58
2023-01-30T06:23:21.777Z,19.20
2023-01-30T06:28:21.478Z,16.48
2023-01-30T06:33:19.750Z,15.77
2023-01-30T06:38:17.989Z,18.13
2023-01-30T06:43:16.472Z,18.77
2023-01-30T06:48:16.126Z,14.15
2023-01-30T06:53:14.331Z,18.52
2023-01-30T06:58:13.492Z,16.75
2023-01-30T07:03:12.438Z,16.80
2023-01-30T07:08:11.975Z,19.10
2023-01-30T07:13:10.341Z,18.50
2023-01-30T07:18:08.548Z,17.90
2023-01-30T07:23:06.733Z,25.10
2023-01-30T07:28:06.593Z,18.30
2023-01-30T07:33:05.883Z,27.83
2023-01-30T07:38:04.334Z,19.42
2023-01-30T08:30:12.025Z,24.15
2023-01-30T08:35:11.186Z,25.67
2023-01-30T08:40:10.418Z,21.27
2023-01-30T08:45:09.012Z,21.20
2023-01-30T08:50:09.114Z,23.25
2023-01-30T08:55:07.528Z,23.52
2023-01-30T09:00:06.400Z,19.25
2023-01-30T09:05:05.134Z,25.98
2023-01-30T09:10:04.891Z,34.00
2023-01-30T09:15:03.467Z,21.50
2023-01-30T09:20:01.684Z,19.50
2023-01-30T09:25:00.192Z,18.98
2023-01-30T09:29:59.740Z,26.55
2023-01-30T09:34:57.977Z,17.65
2023-01-30T09:39:56.164Z,20.25
2023-01-30T09:45:13.791Z,21.15
2023-01-30T09:50:21.558Z,26.27
2023-01-30T09:55:21.712Z,27.02
2023-01-30T10:00:25.683Z,19.02
2023-01-30T10:05:24.676Z,20.38
2023-01-30T10:10:30.725Z,45.35
2023-01-30T10:15:37.734Z,18.92
2023-01-30T10:20:42.085Z,16.08
2023-01-30T10:25:43.801Z,14.43
2023-01-30T10:30:45.295Z,14.35
2023-01-30T10:35:44.073Z,16.42
2023-01-30T10:40:44.182Z,17.70
2023-01-30T10:45:48.067Z,32.58
2023-01-30T10:50:50.767Z,18.67
2023-01-30T10:55:49.594Z,17.23
2023-01-30T11:00:52.705Z,14.38
2023-01-30T11:05:57.584Z,14.40
2023-01-30T11:10:56.272Z,19.75
2023-01-30T11:15:57.779Z,13.27
2023-01-30T11:21:06.128Z,14.00
2023-01-30T11:26:11.678Z,16.20
2023-01-30T11:31:19.792Z,16.13
2023-01-30T11:36:26.132Z,17.40
2023-01-30T11:41:24.406Z,19.40
2023-01-30T11:46:24.361Z,20.95
2023-01-30T11:51:23.870Z,26.60
2023-01-30T11:56:29.576Z,21.88
2023-01-30T12:01:30.957Z,24.38
2023-01-30T12:06:34.778Z,19.38
2023-01-30T12:11:44.913Z,17.02
2023-01-30T12:16:49.622Z,15.50
2023-01-30T12:21:51.074Z,12.88
2023-01-30T12:26:55.409Z,15.65
2023-01-30T12:32:00.498Z,20.60
2023-01-30T12:42:04.505Z,16.85
2023-01-30T12:47:22.178Z,18.47
2023-01-30T12:52:27.505Z,20.80
2023-01-30T12:57:29.163Z,23.05
2023-01-30T13:02:37.629Z,25.67
2023-01-30T13:07:42.510Z,26.05
2023-01-30T13:12:43.486Z,18.15
2023-01-30T13:17:46.849Z,37.13
2023-01-30T13:22:48.369Z,21.90
2023-01-30T13:27:55.214Z,29.50
2023-01-30T13:32:57.966Z,21.80
2023-01-30T13:37:58.091Z,15.98
2023-01-30T13:42:57.815Z,21.83
2023-01-30T13:48:04.760Z,21.58
2023-01-30T13:53:06.596Z,32.70
2023-01-30T13:58:10.720Z,34.97
2023-01-30T14:03:31.495Z,24.08
2023-01-30T14:08:30.409Z,26.35
2023-01-30T14:13:30.644Z,32.40
2023-01-30T14:18:34.008Z,40.10
2023-01-30T14:23:36.483Z,36.13
2023-01-30T14:28:49.717Z,32.75
2023-01-30T14:33:52.526Z,38.55
2023-01-30T14:38:58.012Z,51.30
2023-01-30T14:43:56.232Z,41.28
2023-01-30T14:49:01.082Z,45.75
2023-01-30T14:54:00.818Z,44.20
2023-01-30T14:59:02.811Z,55.72
2023-01-30T15:04:06.905Z,54.42
2023-01-30T15:09:09.368Z,45.47
2023-01-30T15:14:11.888Z,38.05
2023-01-30T15:19:19.022Z,97.32
2023-01-30T15:24:30.399Z,53.13
2023-01-30T15:29:40.844Z,60.97
2023-01-30T15:34:49.543Z,70.55
2023-01-30T15:39:47.780Z,75.38
2023-01-30T15:44:54.915Z,212.35
2023-01-30T15:49:58.212Z,206.27
2023-01-30T15:55:00.651Z,284.00
2023-01-30T15:59:59.251Z,269.90
2023-01-30T16:05:15.194Z,245.55
2023-01-30T16:10:14.655Z,269.55
2023-01-30T16:15:19.849Z,136.65
2023-01-30T16:20:20.014Z,139.23
2023-01-30T16:25:21.377Z,102.95
2023-01-30T16:30:23.614Z,47.15
2023-01-30T16:35:37.589Z,140.70
2023-01-30T16:40:44.983Z,133.00
2023-01-30T16:45:55.253Z,99.32
2023-01-30T16:51:10.284Z,57.53
2023-01-30T16:56:10.881Z,40.65
2023-01-30T17:01:09.733Z,43.03
2023-01-30T17:06:15.106Z,35.30
2023-01-30T17:11:29.143Z,35.65
2023-01-30T17:16:28.793Z,38.50
2023-01-30T17:21:29.266Z,37.80
2023-01-30T17:26:27.673Z,34.45
2023-01-30T17:31:26.152Z,27.65
2023-01-30T17:36:26.656Z,43.33
2023-01-30T17:41:28.517Z,80.38
2023-01-30T17:46:32.460Z,59.13
2023-01-30T17:51:30.701Z,56.35
2023-01-30T17:56:32.335Z,42.30
2023-01-30T18:01:30.594Z,32.60
2023-01-30T18:06:29.939Z,24.38
2023-01-30T18:11:28.094Z,23.95
2023-01-30T18:16:30.988Z,22.67
2023-01-30T18:21:31.675Z,21.15
2023-01-30T18:26:30.907Z,21.48
2023-01-30T18:31:31.841Z,22.17
2023-01-30T18:36:30.126Z,26.77
2023-01-30T18:41:30.862Z,29.10
2023-01-30T18:46:29.408Z,25.58
2023-01-30T18:51:29.591Z,25.35
2023-01-30T18:56:29.531Z,21.05
2023-01-30T19:01:28.460Z,18.00
2023-01-30T19:06:27.038Z,17.30
2023-01-30T19:11:43.944Z,18.77
2023-01-30T19:16:42.362Z,21.42
2023-01-30T19:21:40.698Z,18.25
2023-01-30T19:26:40.519Z,23.40
2023-01-30T19:31:43.991Z,20.90
2023-01-30T19:36:42.616Z,22.58
2023-01-30T19:41:42.181Z,18.13
2023-01-30T19:46:40.469Z,24.00
2023-01-30T19:51:38.705Z,18.05
2023-01-30T19:56:39.273Z,17.00
2023-01-30T20:01:40.124Z,16.73
2023-01-30T20:06:39.057Z,15.82
2023-01-30T20:11:37.854Z,15.65
2023-01-30T20:16:36.410Z,15.82
2023-01-30T20:21:36.219Z,19.52
2023-01-30T20:26:35.912Z,18.20
2023-01-30T20:31:34.991Z,16.95
2023-01-30T20:36:33.253Z,18.10
2023-01-30T20:41:35.132Z,17.52
2023-01-30T20:46:41.415Z,18.23
2023-01-30T20:51:41.721Z,18.65
2023-01-30T20:56:43.859Z,19.20
2023-01-30T21:01:42.226Z,19.17
2023-01-30T21:06:43.567Z,20.73
2023-01-30T21:11:44.989Z,24.65
2023-01-30T21:16:43.219Z,20.42
2023-01-30T21:21:42.645Z,17.08
2023-01-30T21:26:44.642Z,16.95
2023-01-30T21:31:47.301Z,16.58
2023-01-30T21:37:05.920Z,16.00
2023-01-30T21:42:22.181Z,17.92
2023-01-30T21:47:21.754Z,17.88
2023-01-30T21:52:19.927Z,18.70
2023-01-30T21:57:18.112Z,18.30
2023-01-30T22:02:16.272Z,16.15
2023-01-30T22:07:15.818Z,16.60
2023-01-30T22:12:13.982Z,16.88
2023-01-30T22:17:12.237Z,16.83
2023-01-30T22:22:10.421Z,16.55
2023-01-30T22:27:09.989Z,15.48
2023-01-30T22:32:08.316Z,15.82
2023-01-30T22:37:06.457Z,16.58
2023-01-30T22:42:04.721Z,15.82
2023-01-30T22:47:04.434Z,17.45
2023-01-30T22:52:02.823Z,17.08
2023-01-30T22:57:00.931Z,15.90
2023-01-30T23:01:59.167Z,15.65
2023-01-30T23:06:59.655Z,15.88
2023-01-30T23:12:15.715Z,16.23
2023-01-30T23:17:31.433Z,14.27
2023-01-30T23:22:31.492Z,15.23
2023-01-30T23:27:30.444Z,15.13
2023-01-30T23:32:28.578Z,16.38
2023-01-30T23:37:46.890Z,16.42
2023-01-30T23:42:46.434Z,14.77
2023-01-30T23:47:44.726Z,15.23
2023-01-30T23:52:44.612Z,16.83
2023-01-30T23:57:43.143Z,19.13
